Weather reports worldwide

Advertisment
San Vicente, Spain (8017): temperature & dewpoint: 17.05.2019 14:00:00 - 23.05.2019 14:00:00 (CEST)San Vicente, Spain (8017): wind speed & gusts: 17.05.2019 14:00:00 - 23.05.2019 14:00:00 (CEST)San Vicente, Spain (8017): wind direction: 17.05.2019 14:00:00 - 23.05.2019 14:00:00 (CEST)San Vicente, Spain (8017): reduced air pressure: 17.05.2019 14:00:00 - 23.05.2019 14:00:00 (CEST)San Vicente, Spain (8017): precipitation: 17.05.2019 14:00:00 - 23.05.2019 14:00:00 (CEST)
Date & Time tt [°C] td [°C] ff [km/h] ff [kn] fx [km/h] fx [kn] dd ppp [hPa] rr [mm]
23.05.2019 14:00:00 - - - - - - - - -
23.05.2019 13:00:00 17,3 13,3 20 11 36 19 W 1019,1 0,0
23.05.2019 12:00:00 16,0 11,6 24 13 40 21 W 1019,2 0,0
23.05.2019 11:00:00 17,0 11,0 18 10 29 15 W 1019,0 0,0
23.05.2019 10:00:00 15,7 12,4 8 4 20 11 WNW 1018,8 0,0
23.05.2019 09:00:00 14,7 12,7 11 6 24 13 W 1018,5 0,0
23.05.2019 08:00:00 13,9 12,4 15 8 27 14 W 1017,9 -
23.05.2019 07:00:00 13,7 12,2 16 8 29 16 W 1017,3 0,0
23.05.2019 06:00:00 13,3 12,0 6 3 17 9 W 1016,9 0,0
23.05.2019 05:00:00 12,3 11,0 9 5 13 7 SSW 1016,6 0,0
23.05.2019 04:00:00 12,3 11,0 6 3 9 5 S 1016,8 0,0
23.05.2019 03:00:00 12,9 11,7 3 2 12 6 WNW 1017,1 0,0
23.05.2019 02:00:00 13,0 11,8 5 3 11 6 SW 1017,5 -
23.05.2019 01:00:00 13,6 12,3 8 4 11 6 W 1017,7 0,0
23.05.2019 00:00:00 13,4 12,1 2 1 7 4 WSW 1017,6 0,0
22.05.2019 23:00:00 13,6 12,3 0 0 10 5 SSE 1017,8 0,0
22.05.2019 22:00:00 14,0 12,5 5 3 10 5 WNW 1017,5 0,0
22.05.2019 21:00:00 15,2 13,6 4 2 13 7 ENE 1017,3 0,0
22.05.2019 20:00:00 15,3 13,7 8 4 19 10 ENE 1017,3 -
22.05.2019 19:00:00 15,5 13,7 12 7 22 12 ENE 1017,2 0,0
22.05.2019 18:00:00 15,3 13,5 16 9 28 15 ENE 1017,2 0,0
22.05.2019 17:00:00 15,8 13,7 18 10 28 15 E 1017,2 0,0
22.05.2019 16:00:00 16,2 13,9 16 9 29 16 ENE 1017,3 0,0
22.05.2019 15:00:00 17,1 14,3 11 6 19 10 ENE 1017,7 0,0
22.05.2019 14:00:00 16,7 13,9 12 6 21 11 ENE 1018,0 -
22.05.2019 13:00:00 16,4 13,9 11 6 18 10 ENE 1018,0 0,0
22.05.2019 12:00:00 15,8 13,0 10 6 15 8 ENE 1018,2 0,0
22.05.2019 11:00:00 14,3 12,2 6 3 11 6 NE 1018,5 0,0
22.05.2019 10:00:00 12,7 10,9 3 2 6 4 NNE 1018,6 0,0
22.05.2019 09:00:00 12,1 10,9 3 2 11 6 S 1018,7 0,0
22.05.2019 08:00:00 9,1 8,0 8 4 12 7 SSW 1018,9 -
22.05.2019 07:00:00 8,1 7,0 9 5 13 7 SW 1019,2 0,0
22.05.2019 06:00:00 8,0 7,0 10 6 13 7 SSW 1019,3 0,0
22.05.2019 05:00:00 8,4 7,3 10 5 13 7 SW 1019,5 0,0
22.05.2019 04:00:00 8,5 7,4 10 5 13 7 SSW 1019,6 0,0
22.05.2019 03:00:00 9,4 8,4 9 5 11 6 SSW 1019,7 0,0
22.05.2019 02:00:00 9,9 8,8 8 4 11 6 SSW 1020,0 -
22.05.2019 01:00:00 10,9 9,7 5 3 11 6 SE 1020,2 0,0
22.05.2019 00:00:00 11,7 10,3 5 3 15 8 ESE 1020,4 0,0
21.05.2019 23:00:00 12,5 11,1 7 4 22 12 E 1020,3 0,0
21.05.2019 22:00:00 13,1 11,4 9 5 26 14 E 1019,6 0,0
21.05.2019 21:00:00 13,6 11,8 17 9 29 16 ENE 1019,4 0,0
21.05.2019 20:00:00 14,1 12,1 19 10 31 17 ENE 1019,2 -
21.05.2019 19:00:00 14,3 12,0 20 11 27 15 ENE 1019,3 0,0
21.05.2019 18:00:00 14,6 11,9 19 10 28 15 ENE 1019,1 0,0
21.05.2019 17:00:00 15,2 12,5 15 8 29 16 ENE 1019,3 0,0
21.05.2019 16:00:00 15,1 12,2 22 12 29 16 ENE 1018,9 0,0
21.05.2019 15:00:00 15,2 12,5 19 10 27 15 ENE 1019,0 0,0
21.05.2019 14:00:00 15,0 12,3 17 9 27 15 ENE 1018,8 -
21.05.2019 13:00:00 14,9 12,2 18 10 25 14 ENE 1019,1 0,0
21.05.2019 12:00:00 14,6 12,1 14 8 22 12 ENE 1019,0 0,0
21.05.2019 11:00:00 14,2 12,1 7 4 14 7 NE 1018,7 0,0
21.05.2019 10:00:00 13,1 11,1 5 3 8 5 NNE 1018,5 0,0
21.05.2019 09:00:00 13,1 11,8 2 1 13 7 SSE 1018,2 0,0
21.05.2019 08:00:00 9,1 8,0 10 5 18 10 SSW 1018,2 -
21.05.2019 07:00:00 8,3 7,3 11 6 16 9 SSW 1017,8 0,0
21.05.2019 06:00:00 8,7 7,6 11 6 13 7 SSW 1017,1 0,0
21.05.2019 05:00:00 9,1 8,0 10 5 14 8 SSW 1017,0 0,0
21.05.2019 04:00:00 9,9 8,8 9 5 13 7 SSW 1016,8 0,0
21.05.2019 03:00:00 10,2 8,9 10 5 12 6 SSW 1016,9 0,0
21.05.2019 02:00:00 11,0 9,8 7 4 11 6 S 1017,2 -
21.05.2019 01:00:00 12,3 10,9 6 3 10 6 SE 1017,4 0,0
21.05.2019 00:00:00 12,6 10,9 4 2 16 9 E 1017,3 0,0
20.05.2019 23:00:00 13,3 11,6 8 5 15 8 ESE 1017,1 0,0
20.05.2019 22:00:00 13,7 11,8 5 3 10 5 E 1016,6 0,0
20.05.2019 21:00:00 14,1 11,6 4 2 8 5 E 1016,5 0,0
20.05.2019 20:00:00 14,4 11,3 3 2 6 3 ENE 1016,3 -
20.05.2019 19:00:00 14,4 11,3 4 2 9 5 NNE 1016,3 0,0
20.05.2019 18:00:00 14,8 11,6 7 4 12 6 NNE 1016,0 0,0
20.05.2019 17:00:00 15,3 12,1 8 5 14 8 NNE 1015,8 0,0
20.05.2019 16:00:00 15,3 12,1 8 5 14 8 NNE 1016,1 0,0
20.05.2019 15:00:00 15,4 12,5 10 5 14 8 NNE 1016,3 0,0
20.05.2019 14:00:00 15,1 12,4 9 5 14 8 NNE 1016,4 -
20.05.2019 13:00:00 14,7 12,0 11 6 14 8 N 1016,4 0,0
20.05.2019 12:00:00 14,7 12,0 9 5 11 6 N 1016,4 0,0
20.05.2019 11:00:00 13,3 10,6 5 3 11 6 N 1016,5 0,0
20.05.2019 10:00:00 13,6 11,0 3 1 10 5 SSE 1016,3 0,0
20.05.2019 09:00:00 11,3 9,9 7 4 16 8 SSW 1015,9 0,0
20.05.2019 08:00:00 8,5 7,4 11 6 14 8 SSW 1015,7 -
20.05.2019 07:00:00 7,8 6,7 9 5 14 7 SSW 1015,3 0,0
20.05.2019 06:00:00 8,2 7,1 9 5 13 7 SSW 1015,3 0,0
20.05.2019 05:00:00 8,5 7,4 9 5 13 7 SSW 1015,6 0,0
20.05.2019 04:00:00 8,6 7,6 9 5 13 7 SSW 1015,8 0,0
20.05.2019 03:00:00 9,1 7,8 9 5 12 6 SSW 1016,1 0,0
20.05.2019 02:00:00 10,0 8,8 5 3 11 6 SSW 1016,6 -
20.05.2019 01:00:00 10,5 9,0 4 2 10 5 SW 1016,8 0,0
20.05.2019 00:00:00 11,4 9,9 6 3 10 5 SW 1017,0 0,0
19.05.2019 23:00:00 12,0 10,5 4 2 14 8 SW 1016,9 0,0
19.05.2019 22:00:00 12,3 10,5 11 6 23 12 W 1016,2 0,0
19.05.2019 21:00:00 13,2 11,6 13 7 22 12 WNW 1015,9 0,0
19.05.2019 20:00:00 14,0 11,7 15 8 24 13 WNW 1015,9 -
19.05.2019 19:00:00 14,5 12,0 15 8 30 16 WNW 1015,5 0,0
19.05.2019 18:00:00 14,3 11,8 19 10 36 20 WNW 1015,6 0,0
19.05.2019 17:00:00 14,8 12,1 24 13 40 22 WNW 1015,8 0,0
19.05.2019 16:00:00 14,2 11,3 29 16 43 23 WNW 1016,0 0,0
19.05.2019 15:00:00 14,6 11,0 24 13 37 20 WNW 1015,7 0,0
19.05.2019 14:00:00 15,0 10,8 22 12 37 20 WNW 1015,6 -
19.05.2019 13:00:00 13,2 8,9 21 11 41 22 WNW 1015,3 0,0
19.05.2019 12:00:00 14,1 9,3 26 14 42 23 WNW 1015,0 0,0
19.05.2019 11:00:00 13,0 8,7 23 12 37 20 WNW 1014,8 0,0
19.05.2019 10:00:00 12,6 8,5 22 12 39 21 W 1014,4 0,0
19.05.2019 09:00:00 12,1 7,8 18 10 40 22 W 1013,9 0,0
19.05.2019 08:00:00 11,8 8,7 22 12 37 20 W 1013,7 -
19.05.2019 07:00:00 12,0 7,8 24 13 44 24 W 1013,4 0,0
19.05.2019 06:00:00 11,8 8,3 18 10 33 18 W 1013,6 0,0
19.05.2019 05:00:00 11,9 8,8 16 9 41 22 W 1013,5 0,0
19.05.2019 04:00:00 12,2 9,0 21 12 40 21 W 1013,6 0,0
19.05.2019 03:00:00 12,2 8,8 19 10 37 20 W 1013,5 0,0
19.05.2019 02:00:00 12,1 9,2 22 12 41 22 W 1014,0 -
19.05.2019 01:00:00 12,2 9,2 23 12 42 23 W 1013,9 0,0
19.05.2019 00:00:00 12,3 9,8 20 11 37 20 W 1014,1 0,0
18.05.2019 23:00:00 12,3 10,2 21 11 42 23 W 1014,0 0,0
18.05.2019 22:00:00 12,5 10,5 23 13 39 21 W 1013,7 0,0
18.05.2019 21:00:00 12,1 9,8 27 15 45 24 W 1013,4 0,0
18.05.2019 20:00:00 12,9 10,3 24 13 38 20 WNW 1013,2 -
18.05.2019 19:00:00 11,8 9,9 24 13 38 21 W 1013,0 0,1
18.05.2019 18:00:00 11,3 9,6 16 9 43 23 W 1012,8 0,3
18.05.2019 17:00:00 12,5 8,8 27 14 47 25 W 1012,2 0,0
18.05.2019 16:00:00 12,3 9,2 27 15 46 25 W 1012,4 0,0
18.05.2019 15:00:00 11,5 8,7 23 12 50 27 W 1012,3 0,0
18.05.2019 14:00:00 11,5 9,8 22 12 44 24 W 1012,2 -
18.05.2019 13:00:00 10,7 9,3 20 11 102 55 W 1012,4 0,5
18.05.2019 12:00:00 10,3 8,4 22 12 45 25 W 1012,1 0,1
18.05.2019 11:00:00 10,3 8,3 18 10 39 21 W 1011,8 0,0
18.05.2019 10:00:00 9,7 8,0 11 6 31 17 W 1011,6 1,8
18.05.2019 09:00:00 9,5 7,6 11 6 31 17 W 1011,3 1,5
18.05.2019 08:00:00 9,3 7,3 6 3 42 23 W 1010,9 -
18.05.2019 07:00:00 10,0 6,4 11 6 34 19 W 1010,8 0,1
18.05.2019 06:00:00 9,9 6,8 14 8 35 19 W 1010,6 0,3
18.05.2019 05:00:00 9,6 5,5 8 5 21 12 W 1011,1 0,0
18.05.2019 04:00:00 9,3 5,1 2 1 45 24 WSW 1011,3 0,0
18.05.2019 03:00:00 9,8 5,5 20 11 40 22 W 1011,9 0,0
18.05.2019 02:00:00 10,2 7,1 24 13 46 25 W 1012,4 -
18.05.2019 01:00:00 9,4 6,8 22 12 47 25 W 1012,6 0,3
18.05.2019 00:00:00 10,1 7,0 13 7 37 20 W 1013,1 0,0
17.05.2019 23:00:00 9,9 7,1 5 3 39 21 WSW 1013,4 0,0
17.05.2019 22:00:00 10,1 8,5 24 13 42 23 WNW 1013,2 0,4
17.05.2019 21:00:00 10,9 9,0 10 6 60 33 W 1013,0 0,2
17.05.2019 20:00:00 12,3 10,0 27 15 46 25 W 1012,4 -
17.05.2019 19:00:00 12,8 10,6 18 10 46 25 W 1012,3 0,0
17.05.2019 18:00:00 11,6 10,0 16 9 32 17 W 1012,7 1,0
17.05.2019 17:00:00 10,5 8,9 23 13 47 26 W 1012,9 0,9
17.05.2019 16:00:00 13,7 9,9 27 14 42 23 W 1012,5 0,0
17.05.2019 15:00:00 13,9 10,2 23 12 50 27 W 1012,3 0,0
17.05.2019 14:00:00 12,9 10,8 24 13 46 25 W 1012,4 -

tt = temperature
td = dewpoint
ff = wind speed
fx = gusts
dd = wind direction
ppp = reduced air pressure
rr = precipitation

Next stations